Time;durP1;ratioP1;P1;durP2;ratioP2;P2;SDS_P1;SDS_P2;PMS_P1;PMS_P2;Temp;Humidity;BMP_temperature;BMP_pressure;BME280_temperature;BME280_humidity;BME280_pressure;Samples;Min_cycle;Max_cycle;Signal;HPM_P1;HPM_P2
2021/01/07 00:00:04;;;;;;;38.00;21.73;;;;;;;-1.81;100.00;95377.72;1030117;28;20548;-72
2021/01/07 00:00:35;;;;;;;38.17;22.25;;;;;;;-1.82;100.00;95377.91;1026820;28;20027;-72
2021/01/07 00:01:05;;;;;;;32.63;18.73;;;;;;;-1.86;100.00;95372.34;1028535;28;20034;-71
2021/01/07 00:01:40;;;;;;;32.87;19.80;;;;;;;-1.75;100.00;95382.06;1029541;28;20034;-71
2021/01/07 00:02:10;;;;;;;37.95;21.52;;;;;;;-1.78;100.00;95382.44;1029505;28;20042;-71
2021/01/07 00:02:41;;;;;;;35.43;22.13;;;;;;;-1.75;100.00;95379.50;1038577;28;20040;-72
2021/01/07 00:03:11;;;;;;;32.63;20.27;;;;;;;-1.79;100.00;95380.09;1038682;28;20032;-71
2021/01/07 00:03:42;;;;;;;31.80;19.63;;;;;;;-1.77;100.00;95378.13;1035774;28;20084;-70
2021/01/07 00:04:12;;;;;;;32.57;20.57;;;;;;;-1.85;100.00;95371.34;1035364;28;20049;-72
2021/01/07 00:04:42;;;;;;;37.70;21.00;;;;;;;-1.79;100.00;95380.88;1031073;28;20477;-73
2021/01/07 00:05:13;;;;;;;35.60;20.00;;;;;;;-1.86;100.00;95359.50;1027473;28;20019;-72
2021/01/07 00:05:43;;;;;;;35.83;20.70;;;;;;;-1.85;100.00;95366.22;1027262;28;20038;-71
2021/01/07 00:06:14;;;;;;;34.37;20.47;;;;;;;-1.77;100.00;95378.91;1023872;28;20034;-70
2021/01/07 00:06:45;;;;;;;35.43;21.70;;;;;;;-1.81;100.00;95380.28;1027125;28;20118;-71
2021/01/07 00:07:15;;;;;;;31.90;19.97;;;;;;;-1.82;100.00;95381.25;1031398;28;20030;-71
2021/01/07 00:07:46;;;;;;;31.83;17.63;;;;;;;-1.80;100.00;95379.28;1031659;28;20022;-71
2021/01/07 00:08:16;;;;;;;33.53;20.13;;;;;;;-1.79;100.00;95383.44;1037435;28;20044;-71
2021/01/07 00:08:47;;;;;;;34.47;20.23;;;;;;;-1.79;100.00;95380.88;1031057;28;20104;-71
2021/01/07 00:09:17;;;;;;;37.50;22.00;;;;;;;-1.94;100.00;95362.25;1027672;28;20037;-71
2021/01/07 00:09:47;;;;;;;38.77;21.67;;;;;;;-1.81;100.00;95382.88;1032533;28;20040;-71
2021/01/07 00:10:18;;;;;;;35.83;20.97;;;;;;;-1.81;100.00;95390.56;1023502;28;20044;-73
2021/01/07 00:10:48;;;;;;;38.67;21.13;;;;;;;-1.81;100.00;95379.47;1027129;28;20061;-71
2021/01/07 00:11:19;;;;;;;37.23;21.93;;;;;;;-1.89;100.00;95365.03;1031325;28;20026;-72
2021/01/07 00:11:51;;;;;;;34.33;20.57;;;;;;;-1.84;100.00;95378.09;1036099;28;20064;-71
2021/01/07 00:12:22;;;;;;;41.15;22.42;;;;;;;-1.83;100.00;95384.81;1034118;28;20026;-71
2021/01/07 00:12:52;;;;;;;40.20;21.63;;;;;;;-1.84;100.00;95380.69;1031107;28;20137;-71
2021/01/07 00:13:23;;;;;;;36.90;22.50;;;;;;;-1.82;100.00;95380.47;1027480;28;20188;-70
2021/01/07 00:13:53;;;;;;;34.03;20.67;;;;;;;-1.80;100.00;95383.66;1027788;28;20094;-72
2021/01/07 00:14:24;;;;;;;29.73;19.37;;;;;;;-1.82;100.00;95383.81;1039824;28;20073;-71
2021/01/07 00:14:54;;;;;;;37.23;21.50;;;;;;;-1.91;100.00;95367.81;1031254;28;20027;-71
2021/01/07 00:15:25;;;;;;;36.00;21.93;;;;;;;-1.81;100.00;95382.03;1031070;28;20100;-71
2021/01/07 00:15:55;;;;;;;32.83;20.83;;;;;;;-1.81;100.00;95377.72;1034507;28;20034;-71
2021/01/07 00:16:26;;;;;;;33.00;19.47;;;;;;;-1.81;100.00;95382.88;1035412;28;20061;-72
2021/01/07 00:16:56;;;;;;;32.33;20.17;;;;;;;-1.81;100.00;95375.16;1031335;28;20023;-70
2021/01/07 00:17:27;;;;;;;33.80;20.37;;;;;;;-1.82;100.00;95383.81;1031122;28;20042;-71
2021/01/07 00:17:57;;;;;;;33.43;20.67;;;;;;;-1.82;100.00;95383.81;1039465;28;20026;-71
2021/01/07 00:18:28;;;;;;;38.07;21.90;;;;;;;-1.82;100.00;95378.69;1035813;28;20453;-71
2021/01/07 00:18:58;;;;;;;38.60;22.30;;;;;;;-1.80;100.00;95378.50;1030980;28;20026;-72
2021/01/07 00:19:28;;;;;;;34.97;20.60;;;;;;;-1.84;100.00;95378.09;1035189;28;20053;-70
2021/01/07 00:19:59;;;;;;;32.33;20.30;;;;;;;-1.78;100.00;95385.03;1031704;28;20023;-70
2021/01/07 00:20:31;;;;;;;34.03;20.67;;;;;;;-1.80;100.00;95384.44;1027435;28;20082;-71
2021/01/07 00:21:02;;;;;;;32.30;20.05;;;;;;;-1.78;100.00;95376.50;1034405;28;20487;-72
2021/01/07 00:21:32;;;;;;;34.30;20.57;;;;;;;-1.79;100.00;95386.00;1031704;28;20117;-71
2021/01/07 00:22:03;;;;;;;35.90;19.63;;;;;;;-1.75;100.00;95382.06;1031674;28;20034;-71
2021/01/07 00:22:33;;;;;;;35.50;20.70;;;;;;;-1.78;100.00;95382.44;1035026;28;20030;-73
2021/01/07 00:23:04;;;;;;;42.37;22.33;;;;;;;-1.78;100.00;95382.44;1039483;28;20022;-72
2021/01/07 00:23:34;;;;;;;34.23;20.73;;;;;;;-1.78;100.00;95385.03;1043640;28;20051;-71
2021/01/07 00:24:05;;;;;;;32.97;20.20;;;;;;;-1.78;100.00;95382.44;1047309;28;20016;-71
2021/01/07 00:24:36;;;;;;;34.80;20.77;;;;;;;-1.74;100.00;95383.66;1035187;28;20068;-72
2021/01/07 00:25:08;;;;;;;36.80;21.47;;;;;;;-1.85;100.00;95373.94;1030922;28;20117;-70
2021/01/07 00:25:39;;;;;;;36.35;21.80;;;;;;;-1.78;100.00;95384.22;1027239;28;20110;-72
2021/01/07 00:26:09;;;;;;;35.08;20.25;;;;;;;-1.74;100.00;95386.25;1031185;28;20022;-70
2021/01/07 00:26:40;;;;;;;32.97;20.63;;;;;;;-1.83;100.00;95371.97;1035628;28;20080;-71
2021/01/07 00:27:10;;;;;;;34.63;20.77;;;;;;;-1.75;100.00;95382.06;1027140;28;20030;-72
2021/01/07 00:27:41;;;;;;;33.57;20.37;;;;;;;-1.75;100.00;95382.06;1034522;28;20038;-71
2021/01/07 00:28:11;;;;;;;31.77;20.07;;;;;;;-1.75;100.00;95384.63;1035741;28;20028;-71
2021/01/07 00:28:42;;;;;;;35.53;21.17;;;;;;;-1.77;100.00;95386.63;1035238;28;20018;-72
2021/01/07 00:29:12;;;;;;;33.13;20.53;;;;;;;-1.78;100.00;95387.59;1038289;28;20388;-72
2021/01/07 00:29:42;;;;;;;35.17;19.73;;;;;;;-1.74;100.00;95383.66;1035205;28;20029;-71
2021/01/07 00:30:14;;;;;;;34.47;20.43;;;;;;;-1.77;100.00;95383.25;1035314;28;20018;-70
2021/01/07 00:30:44;;;;;;;35.45;20.38;;;;;;;-1.75;100.00;95382.06;1041264;28;20212;-71
2021/01/07 00:31:15;;;;;;;32.10;19.77;;;;;;;-1.76;100.00;95385.63;1031750;28;20141;-71
2021/01/07 00:31:45;;;;;;;33.67;20.30;;;;;;;-1.79;100.00;95383.44;1027115;28;20027;-72
2021/01/07 00:32:16;;;;;;;33.10;19.73;;;;;;;-1.78;100.00;95379.88;1022641;28;20051;-71
2021/01/07 00:32:46;;;;;;;35.73;21.13;;;;;;;-1.74;100.00;95386.25;1022955;29;20067;-71
2021/01/07 00:33:17;;;;;;;35.70;20.70;;;;;;;-1.78;100.00;95368.81;1023132;28;20423;-71
2021/01/07 00:33:48;;;;;;;30.43;19.43;;;;;;;-1.71;100.00;95385.84;1023431;29;20034;-72
2021/01/07 00:34:18;;;;;;;32.07;19.63;;;;;;;-1.72;100.00;95381.69;1026839;28;20038;-72
2021/01/07 00:34:49;;;;;;;33.40;20.20;;;;;;;-1.72;100.00;95386.81;1035557;28;20025;-71
2021/01/07 00:35:19;;;;;;;35.63;20.87;;;;;;;-1.86;100.00;95358.72;1031218;28;20033;-70
2021/01/07 00:35:50;;;;;;;35.37;22.20;;;;;;;-1.80;100.00;95374.16;1033265;28;20030;-71
2021/01/07 00:36:20;;;;;;;38.57;21.80;;;;;;;-1.71;100.00;95382.47;1026760;28;20085;-71
2021/01/07 00:36:57;;;;;;;35.37;20.90;;;;;;;-1.70;100.00;95379.72;1027174;28;20030;-71
2021/01/07 00:37:27;;;;;;;35.38;21.10;;;;;;;-1.69;100.00;95381.28;1030747;28;20061;-71
2021/01/07 00:37:58;;;;;;;33.17;20.43;;;;;;;-1.69;100.00;95383.06;1030642;28;20069;-71
2021/01/07 00:38:29;;;;;;;35.70;21.03;;;;;;;-1.70;100.00;95384.84;1028092;28;20030;-71
2021/01/07 00:38:59;;;;;;;32.67;20.17;;;;;;;-1.71;100.00;95388.44;1031621;28;20101;-71
2021/01/07 00:39:30;;;;;;;33.10;19.07;;;;;;;-1.72;100.00;95391.97;1027670;28;20036;-71
2021/01/07 00:40:00;;;;;;;34.27;20.50;;;;;;;-1.67;100.00;95387.03;1027276;28;20030;-72
2021/01/07 00:40:34;;;;;;;33.33;20.27;;;;;;;-1.68;100.00;95388.03;1027618;28;20034;-72
2021/01/07 00:41:05;;;;;;;34.08;20.77;;;;;;;-1.66;100.00;95390.41;1031122;28;20026;-72
2021/01/07 00:41:35;;;;;;;34.73;19.97;;;;;;;-1.76;100.00;95374.56;1035358;28;20034;-72
2021/01/07 00:42:06;;;;;;;32.57;19.67;;;;;;;-1.64;100.00;95387.63;1035454;28;20029;-72
2021/01/07 00:42:36;;;;;;;32.13;20.17;;;;;;;-1.66;100.00;95385.25;1030469;28;20437;-71
2021/01/07 00:43:07;;;;;;;30.87;19.47;;;;;;;-1.68;100.00;95388.03;1031711;28;20065;-72
2021/01/07 00:43:37;;;;;;;31.77;20.00;;;;;;;-1.69;100.00;95388.22;1024726;28;20729;-71
2021/01/07 00:44:08;;;;;;;36.17;21.33;;;;;;;-1.70;100.00;95384.84;1023104;28;20066;-71
2021/01/07 00:44:38;;;;;;;35.30;21.13;;;;;;;-1.68;100.00;95385.47;1033502;28;20041;-72
2021/01/07 00:45:09;;;;;;;29.67;19.23;;;;;;;-1.65;100.00;95391.97;1031078;28;20069;-73
2021/01/07 00:45:39;;;;;;;31.27;19.83;;;;;;;-1.65;100.00;95384.25;1027285;28;20498;-71
2021/01/07 00:46:10;;;;;;;31.07;19.23;;;;;;;-1.72;100.00;95376.53;1023942;28;20038;-71
2021/01/07 00:46:40;;;;;;;33.13;20.53;;;;;;;-1.67;100.00;95389.63;1023090;29;20506;-71
2021/01/07 00:47:11;;;;;;;35.03;21.90;;;;;;;-1.69;100.00;95391.56;1023482;29;20062;-72
2021/01/07 00:47:41;;;;;;;31.03;19.43;;;;;;;-1.69;100.00;95390.78;1031259;28;20018;-70
2021/01/07 00:48:12;;;;;;;31.83;19.30;;;;;;;-1.66;100.00;95392.97;1031711;28;20489;-72
2021/01/07 00:48:42;;;;;;;32.87;20.53;;;;;;;-1.80;100.00;95363.88;1027349;28;20058;-73
2021/01/07 00:49:13;;;;;;;32.03;19.80;;;;;;;-1.68;100.00;95388.03;1027242;28;20041;-71
2021/01/07 00:49:44;;;;;;;31.70;20.13;;;;;;;-1.69;100.00;95380.50;1025182;28;20555;-71
2021/01/07 00:50:14;;;;;;;31.60;19.57;;;;;;;-1.75;100.00;95370.97;1027422;28;20027;-72
2021/01/07 00:50:45;;;;;;;32.00;20.20;;;;;;;-1.69;100.00;95396.72;1023019;29;20271;-70
2021/01/07 00:51:15;;;;;;;30.40;19.40;;;;;;;-1.70;100.00;95384.84;1027612;28;20033;-71
2021/01/07 00:51:46;;;;;;;32.33;20.90;;;;;;;-1.69;100.00;95386.44;1028067;28;20083;-71
2021/01/07 00:52:16;;;;;;;36.80;21.20;;;;;;;-1.67;100.00;95389.63;1027373;28;20295;-73
2021/01/07 00:52:47;;;;;;;32.97;19.93;;;;;;;-1.69;100.00;95391.56;1027899;28;20043;-71
2021/01/07 00:53:17;;;;;;;33.87;20.20;;;;;;;-1.67;100.00;95394.75;1030116;28;20022;-71
2021/01/07 00:53:48;;;;;;;28.20;18.10;;;;;;;-1.68;100.00;95390.63;1035753;28;20062;-71
2021/01/07 00:54:18;;;;;;;33.00;20.07;;;;;;;-1.69;100.00;95383.84;1031559;28;20026;-71
2021/01/07 00:54:49;;;;;;;32.17;19.47;;;;;;;-1.67;100.00;95389.63;1029211;28;20115;-71
2021/01/07 00:55:20;;;;;;;31.23;19.93;;;;;;;-1.68;100.00;95395.75;1031598;28;20026;-70
2021/01/07 00:55:50;;;;;;;31.80;19.65;;;;;;;-1.69;100.00;95395.94;1035473;28;20616;-71
2021/01/07 00:56:21;;;;;;;34.97;20.00;;;;;;;-1.68;100.00;95389.78;1038248;28;20037;-72
2021/01/07 00:56:51;;;;;;;32.20;19.63;;;;;;;-1.73;100.00;95387.81;1035659;28;20066;-71
2021/01/07 00:57:22;;;;;;;35.20;20.93;;;;;;;-1.69;100.00;95396.72;1031107;28;20074;-70
2021/01/07 00:57:52;;;;;;;34.67;21.10;;;;;;;-1.68;100.00;95393.19;1031328;28;20793;-72
2021/01/07 00:58:23;;;;;;;35.33;21.13;;;;;;;-1.72;100.00;95391.97;1031287;28;20037;-72
2021/01/07 00:58:53;;;;;;;32.83;20.13;;;;;;;-1.71;100.00;95393.56;1031325;28;20038;-71
2021/01/07 00:59:23;;;;;;;34.83;20.13;;;;;;;-1.69;100.00;95393.38;1035786;28;20038;-72
2021/01/07 00:59:54;;;;;;;32.03;19.97;;;;;;;-1.75;100.00;95387.22;1030040;28;20026;-71
2021/01/07 01:00:24;;;;;;;29.30;18.50;;;;;;;-1.70;100.00;95392.56;1027907;28;20031;-71
2021/01/07 01:00:55;;;;;;;32.53;19.77;;;;;;;-1.66;100.00;95396.34;1031613;28;20049;-71
2021/01/07 01:01:25;;;;;;;36.10;21.60;;;;;;;-1.73;100.00;95385.25;1027641;28;20030;-72
2021/01/07 01:01:56;;;;;;;29.43;19.43;;;;;;;-1.66;100.00;95395.53;1027395;28;20035;-71
2021/01/07 01:02:26;;;;;;;30.60;20.07;;;;;;;-1.71;100.00;95398.72;1027156;28;20053;-71
2021/01/07 01:02:57;;;;;;;30.70;19.43;;;;;;;-1.73;100.00;95385.25;1031440;28;20030;-71
2021/01/07 01:03:27;;;;;;;32.57;20.37;;;;;;;-1.70;100.00;95395.16;1031730;28;20038;-72
2021/01/07 01:03:58;;;;;;;35.53;20.63;;;;;;;-1.69;100.00;95395.94;1031602;28;20081;-71
2021/01/07 01:04:28;;;;;;;33.13;19.40;;;;;;;-1.67;100.00;95405.03;1027202;28;20029;-71
2021/01/07 01:04:59;;;;;;;34.37;21.07;;;;;;;-1.66;100.00;95401.47;1029107;28;20592;-72
2021/01/07 01:05:29;;;;;;;33.33;20.27;;;;;;;-1.71;100.00;95382.47;1030995;28;20042;-71
2021/01/07 01:06:00;;;;;;;34.00;20.37;;;;;;;-1.70;100.00;95394.34;1027213;28;20023;-72
2021/01/07 01:06:31;;;;;;;33.87;19.77;;;;;;;-1.68;100.00;95397.50;1027396;28;20166;-71
2021/01/07 01:07:02;;;;;;;33.28;19.95;;;;;;;-1.72;100.00;95391.19;1027125;28;20805;-72
2021/01/07 01:07:33;;;;;;;32.47;20.00;;;;;;;-1.70;100.00;95395.16;1026908;28;20161;-71
2021/01/07 01:08:04;;;;;;;29.20;18.90;;;;;;;-1.67;100.00;95399.91;1027702;28;20325;-72
2021/01/07 01:08:34;;;;;;;31.40;20.00;;;;;;;-1.66;100.00;95403.25;1030822;28;20053;-72
2021/01/07 01:09:05;;;;;;;32.67;20.63;;;;;;;-1.68;100.00;95398.31;1031874;28;20051;-70
2021/01/07 01:09:36;;;;;;;30.85;19.05;;;;;;;-1.63;100.00;95399.53;1035135;28;20034;-72
2021/01/07 01:10:10;;;;;;;28.00;17.97;;;;;;;-1.66;100.00;95398.13;1034169;28;20532;-71
2021/01/07 01:10:40;;;;;;;29.80;18.23;;;;;;;-1.72;100.00;95386.81;1035400;28;20044;-72
2021/01/07 01:11:11;;;;;;;32.37;19.20;;;;;;;-1.72;100.00;95380.88;1027178;28;20070;-69
2021/01/07 01:11:42;;;;;;;29.73;18.60;;;;;;;-1.67;100.00;95397.34;1023484;28;20020;-73
2021/01/07 01:12:12;;;;;;;32.55;20.40;;;;;;;-1.72;100.00;95384.25;1019160;29;20016;-72
2021/01/07 01:12:43;;;;;;;28.53;19.20;;;;;;;-1.69;100.00;95399.28;1020703;28;20027;-71
2021/01/07 01:13:16;;;;;;;29.53;17.13;;;;;;;-1.63;100.00;95400.31;1027943;28;20015;-70
2021/01/07 01:13:46;;;;;;;31.00;19.17;;;;;;;-1.70;100.00;95392.56;1028453;28;20434;-71
2021/01/07 01:14:18;;;;;;;29.83;18.80;;;;;;;-1.77;100.00;95383.25;1033828;28;20037;-71
2021/01/07 01:14:49;;;;;;;30.73;18.73;;;;;;;-1.77;100.00;95384.06;1032653;28;20617;-70
2021/01/07 01:15:19;;;;;;;29.00;18.30;;;;;;;-1.69;100.00;95399.28;1034749;28;20061;-71
2021/01/07 01:15:50;;;;;;;29.83;18.80;;;;;;;-1.71;100.00;95392.75;1031123;28;20049;-71
2021/01/07 01:16:20;;;;;;;30.93;18.83;;;;;;;-1.69;100.00;95396.72;1032122;28;20602;-72
2021/01/07 01:16:51;;;;;;;29.27;17.30;;;;;;;-1.76;100.00;95377.13;1031008;28;20041;-70
2021/01/07 01:17:21;;;;;;;29.05;18.77;;;;;;;-1.71;100.00;95395.31;1023227;28;20023;-71
2021/01/07 01:17:52;;;;;;;29.37;18.13;;;;;;;-1.75;100.00;95376.13;1026900;28;20031;-72
2021/01/07 01:18:22;;;;;;;26.73;16.80;;;;;;;-1.66;100.00;95398.91;1022664;28;20074;-71
2021/01/07 01:18:53;;;;;;;26.63;17.47;;;;;;;-1.68;100.00;95392.38;1027361;28;20026;-70
2021/01/07 01:19:24;;;;;;;28.53;18.17;;;;;;;-1.67;100.00;95394.75;1022916;29;20021;-72
2021/01/07 01:19:54;;;;;;;27.87;17.83;;;;;;;-1.64;100.00;95397.91;1027144;28;20022;-72
2021/01/07 01:20:25;;;;;;;29.10;17.90;;;;;;;-1.66;100.00;95398.91;1023670;28;20047;-71
2021/01/07 01:20:55;;;;;;;28.37;18.67;;;;;;;-1.64;100.00;95397.91;1023353;28;20030;-70
2021/01/07 01:21:25;;;;;;;27.77;18.47;;;;;;;-1.72;100.00;95391.19;1035323;28;20021;-71
2021/01/07 01:21:56;;;;;;;24.90;15.93;;;;;;;-1.61;100.00;95397.53;1026898;28;20031;-73
2021/01/07 01:22:33;;;;;;;27.10;16.97;;;;;;;-1.67;100.00;95399.91;1022376;28;20023;-71
2021/01/07 01:23:05;;;;;;;26.25;16.90;;;;;;;-1.64;100.00;95403.88;1027846;28;20026;-71
2021/01/07 01:23:35;;;;;;;25.92;16.70;;;;;;;-1.71;100.00;95398.72;1032195;28;20030;-71
2021/01/07 01:24:06;;;;;;;24.43;15.93;;;;;;;-1.75;100.00;95386.41;1036396;28;20537;-73
2021/01/07 01:24:36;;;;;;;22.87;15.93;;;;;;;-1.66;100.00;95406.63;1030463;28;20506;-72
2021/01/07 01:25:08;;;;;;;28.10;17.87;;;;;;;-1.69;100.00;95399.28;1035478;28;20052;-70
2021/01/07 01:25:38;;;;;;;26.33;17.60;;;;;;;-1.68;100.00;95406.03;1035057;28;20068;-71
2021/01/07 01:26:09;;;;;;;25.17;16.53;;;;;;;-1.68;100.00;95407.78;1031649;28;20083;-71
2021/01/07 01:26:39;;;;;;;27.60;17.43;;;;;;;-1.69;100.00;95403.66;1023559;28;20042;-72
2021/01/07 01:27:10;;;;;;;22.00;15.60;;;;;;;-1.68;100.00;95408.63;1029588;28;20636;-72
2021/01/07 01:27:42;;;;;;;22.63;14.97;;;;;;;-1.74;100.00;95393.16;1031044;28;20030;-71
2021/01/07 01:28:12;;;;;;;25.23;16.27;;;;;;;-1.67;100.00;95409.41;1023489;28;20047;-72
2021/01/07 01:28:43;;;;;;;26.77;16.70;;;;;;;-1.78;100.00;95392.72;1029779;28;20030;-70
2021/01/07 01:29:13;;;;;;;24.17;16.37;;;;;;;-1.67;100.00;95407.63;1027075;28;20433;-72
2021/01/07 01:29:44;;;;;;;24.27;16.53;;;;;;;-1.63;100.00;95410.59;1031216;28;20046;-71
2021/01/07 01:30:14;;;;;;;24.00;16.13;;;;;;;-1.64;100.00;95411.59;1032879;28;20053;-72
2021/01/07 01:30:45;;;;;;;27.63;16.93;;;;;;;-1.68;100.00;95400.06;1030653;28;20039;-71
2021/01/07 01:31:15;;;;;;;27.33;17.30;;;;;;;-1.68;100.00;95406.03;1027397;28;20026;-73
2021/01/07 01:31:46;;;;;;;26.47;17.83;;;;;;;-1.64;100.00;95413.34;1027126;28;20482;-72
2021/01/07 01:32:16;;;;;;;24.47;16.60;;;;;;;-1.66;100.00;95405.84;1030576;28;20018;-71
2021/01/07 01:32:47;;;;;;;25.67;16.67;;;;;;;-1.63;100.00;95412.38;1031016;28;20030;-71
2021/01/07 01:33:17;;;;;;;24.70;16.53;;;;;;;-1.62;100.00;95407.03;1034854;28;20416;-70
2021/01/07 01:33:48;;;;;;;21.23;14.70;;;;;;;-1.70;100.00;95395.16;1035446;28;20148;-73
2021/01/07 01:34:18;;;;;;;22.20;15.10;;;;;;;-1.61;100.00;95405.25;1034729;28;20026;-73
2021/01/07 01:34:50;;;;;;;23.03;15.67;;;;;;;-1.72;100.00;95401.47;1039126;28;20128;-70
2021/01/07 01:35:21;;;;;;;25.95;16.38;;;;;;;-1.64;100.00;95409.00;1039371;28;20808;-73
2021/01/07 01:35:51;;;;;;;23.83;16.50;;;;;;;-1.73;100.00;95405.03;1031203;28;20117;-71
2021/01/07 01:36:25;;;;;;;25.33;16.93;;;;;;;-1.75;100.00;95397.50;1035057;28;20041;-72
2021/01/07 01:36:56;;;;;;;24.23;16.35;;;;;;;-1.62;100.00;95408.81;1031226;28;20026;-71
2021/01/07 01:37:29;;;;;;;23.07;15.20;;;;;;;-1.73;100.00;95397.31;1031183;28;20499;-71
2021/01/07 01:37:59;;;;;;;24.90;16.67;;;;;;;-1.72;100.00;95399.69;1031685;28;20022;-69
2021/01/07 01:38:30;;;;;;;23.53;15.70;;;;;;;-1.61;100.00;95406.06;1026739;28;20405;-72
2021/01/07 01:39:00;;;;;;;21.90;14.63;;;;;;;-1.91;100.00;95369.59;1027922;28;20083;-72
2021/01/07 01:39:31;;;;;;;21.97;15.03;;;;;;;-1.62;100.00;95408.81;1031403;28;20030;-72
2021/01/07 01:40:03;;;;;;;21.23;14.63;;;;;;;-1.61;100.00;95410.38;1035765;28;20131;-71
2021/01/07 01:40:34;;;;;;;23.52;15.85;;;;;;;-1.62;100.00;95408.81;1034930;28;20029;-71
2021/01/07 01:41:04;;;;;;;25.30;15.87;;;;;;;-1.63;100.00;95412.38;1030539;28;20042;-72
2021/01/07 01:41:50;;;;;;;23.23;15.93;;;;;;;-1.64;100.00;95409.00;1023133;28;20116;-70
2021/01/07 01:42:24;;;;;;;22.10;14.80;;;;;;;-1.65;100.00;95409.97;1028376;28;20058;-71
2021/01/07 01:42:54;;;;;;;23.05;15.32;;;;;;;-1.69;100.00;95401.88;1035913;28;20061;-71
2021/01/07 01:43:25;;;;;;;23.37;15.97;;;;;;;-1.64;100.00;95410.78;1032869;28;20037;-71
2021/01/07 01:43:55;;;;;;;23.27;15.43;;;;;;;-1.67;100.00;95415.34;1021748;28;20027;-71
2021/01/07 01:44:26;;;;;;;23.37;15.90;;;;;;;-1.63;100.00;95407.22;1018931;29;20035;-73
2021/01/07 01:44:56;;;;;;;24.97;16.67;;;;;;;-1.64;100.00;95411.59;1023144;28;20027;-71
2021/01/07 01:45:27;;;;;;;21.03;15.10;;;;;;;-1.66;100.00;95405.84;1026596;28;20015;-72
2021/01/07 01:45:58;;;;;;;22.50;15.10;;;;;;;-1.62;100.00;95408.81;1042947;28;20069;-70
2021/01/07 01:46:28;;;;;;;22.70;15.18;;;;;;;-1.64;100.00;95408.19;1039281;28;20026;-73
2021/01/07 01:46:59;;;;;;;19.83;13.50;;;;;;;-1.61;100.00;95412.97;1034548;28;20738;-71
2021/01/07 01:47:29;;;;;;;21.03;13.77;;;;;;;-1.68;100.00;95400.06;1028884;28;20038;-71
2021/01/07 01:48:00;;;;;;;23.77;15.07;;;;;;;-1.61;100.00;95413.78;1027168;28;20450;-70
2021/01/07 01:48:30;;;;;;;21.53;14.43;;;;;;;-1.71;100.00;95396.13;1033665;28;20018;-71
2021/01/07 01:49:01;;;;;;;20.70;14.20;;;;;;;-1.69;100.00;95401.88;1031227;28;20031;-71
2021/01/07 01:49:32;;;;;;;22.40;14.63;;;;;;;-1.62;100.00;95406.25;1022813;29;20114;-70
2021/01/07 01:50:02;;;;;;;22.20;14.33;;;;;;;-1.73;100.00;95400.66;1019182;29;20188;-73
2021/01/07 01:50:33;;;;;;;22.07;15.23;;;;;;;-1.62;100.00;95414.75;1018999;29;20110;-71
2021/01/07 01:51:04;;;;;;;21.40;14.53;;;;;;;-1.61;100.00;95415.53;1018898;29;20020;-70
2021/01/07 01:51:34;;;;;;;18.97;12.93;;;;;;;-1.62;100.00;95413.94;1023538;28;20023;-73
2021/01/07 01:52:05;;;;;;;21.83;14.10;;;;;;;-1.67;100.00;95410.19;1026996;28;20417;-72
2021/01/07 01:52:35;;;;;;;22.33;15.17;;;;;;;-1.62;100.00;95411.38;1018360;29;20080;-71
2021/01/07 01:53:06;;;;;;;21.10;14.50;;;;;;;-1.62;100.00;95416.53;1023032;29;20019;-71
2021/01/07 01:53:36;;;;;;;20.70;14.73;;;;;;;-1.61;100.00;95415.53;1025830;28;20023;-73
2021/01/07 01:54:07;;;;;;;21.87;14.90;;;;;;;-1.58;100.00;95410.00;1023364;28;20027;-71
2021/01/07 01:54:37;;;;;;;21.90;15.07;;;;;;;-1.68;100.00;95403.47;1019122;29;20134;-72
2021/01/07 01:55:08;;;;;;;20.87;14.27;;;;;;;-1.59;100.00;95416.13;1020675;28;20852;-71
2021/01/07 01:55:41;;;;;;;21.77;15.07;;;;;;;-1.57;100.00;95416.75;1027087;28;20027;-70
2021/01/07 01:56:11;;;;;;;20.90;14.18;;;;;;;-1.60;100.00;95417.13;1031737;28;20433;-71
2021/01/07 01:56:45;;;;;;;22.03;15.07;;;;;;;-1.62;100.00;95412.16;1031166;28;20042;-72
2021/01/07 01:57:16;;;;;;;21.60;14.77;;;;;;;-1.75;100.00;95399.28;1027788;28;20023;-71
2021/01/07 01:57:46;;;;;;;24.83;16.20;;;;;;;-1.72;100.00;95401.47;1030880;28;20026;-72
2021/01/07 01:58:17;;;;;;;20.60;14.53;;;;;;;-1.68;100.00;95411.19;1031149;28;20580;-71
2021/01/07 01:58:47;;;;;;;22.13;15.30;;;;;;;-1.76;100.00;95403.63;1026584;28;20572;-71
2021/01/07 01:59:19;;;;;;;21.63;14.73;;;;;;;-1.66;100.00;95416.13;1034669;28;20037;-71
2021/01/07 01:59:49;;;;;;;21.52;14.60;;;;;;;-1.64;100.00;95413.34;1031183;28;20513;-71
2021/01/07 02:00:20;;;;;;;23.10;15.13;;;;;;;-1.66;100.00;95411.75;1027240;28;20131;-73
2021/01/07 02:00:50;;;;;;;19.07;13.27;;;;;;;-1.73;100.00;95400.66;1023145;28;20136;-71
2021/01/07 02:01:21;;;;;;;21.37;14.63;;;;;;;-1.74;100.00;95399.09;1027274;28;20050;-72
2021/01/07 02:01:51;;;;;;;21.80;14.33;;;;;;;-1.64;100.00;95416.72;1034359;28;20033;-71
2021/01/07 02:02:22;;;;;;;21.17;14.37;;;;;;;-1.66;100.00;95416.91;1030615;28;20034;-71
2021/01/07 02:02:52;;;;;;;20.87;14.47;;;;;;;-1.70;100.00;95413.16;1034617;28;20096;-71
2021/01/07 02:03:23;;;;;;;22.90;14.13;;;;;;;-1.65;100.00;95417.69;1026815;28;20048;-71
2021/01/07 02:03:54;;;;;;;20.23;14.30;;;;;;;-1.64;100.00;95418.50;1022909;28;20042;-70
2021/01/07 02:04:24;;;;;;;22.23;14.33;;;;;;;-1.66;100.00;95411.75;1027024;28;20643;-71
2021/01/07 02:04:55;;;;;;;20.10;13.87;;;;;;;-1.74;100.00;95393.94;1031090;28;20265;-71
2021/01/07 02:05:25;;;;;;;21.23;14.13;;;;;;;-1.63;100.00;95414.94;1037305;28;20421;-71
2021/01/07 02:05:56;;;;;;;21.20;14.80;;;;;;;-1.63;100.00;95414.94;1042949;28;20523;-70
2021/01/07 02:06:27;;;;;;;20.13;13.98;;;;;;;-1.75;100.00;95401.84;1039323;28;20420;-73
2021/01/07 02:06:58;;;;;;;21.63;14.87;;;;;;;-1.71;100.00;95396.13;1035732;28;20065;-72
2021/01/07 02:07:28;;;;;;;20.10;14.15;;;;;;;-1.62;100.00;95419.88;1034876;28;20370;-71
2021/01/07 02:08:00;;;;;;;19.00;13.37;;;;;;;-1.64;100.00;95410.78;1034980;28;20065;-71
2021/01/07 02:08:30;;;;;;;20.70;14.68;;;;;;;-1.64;100.00;95418.50;1034723;28;20025;-71
2021/01/07 02:09:01;;;;;;;19.23;13.93;;;;;;;-1.66;100.00;95411.75;1030312;28;20413;-72
2021/01/07 02:09:32;;;;;;;21.07;14.83;;;;;;;-1.62;100.00;95419.09;1026619;28;20041;-71
2021/01/07 02:10:02;;;;;;;20.30;14.30;;;;;;;-1.62;100.00;95421.66;1022870;28;20058;-72
2021/01/07 02:10:33;;;;;;;21.97;15.37;;;;;;;-1.69;100.00;95401.88;1029465;28;20289;-72
2021/01/07 02:11:03;;;;;;;19.30;13.73;;;;;;;-1.64;100.00;95414.16;1027154;28;20081;-71
2021/01/07 02:11:34;;;;;;;20.17;13.57;;;;;;;-1.61;100.00;95418.09;1031031;28;20026;-71
2021/01/07 02:12:05;;;;;;;19.10;13.67;;;;;;;-1.60;100.00;95414.56;1030718;28;20030;-72
2021/01/07 02:12:35;;;;;;;21.17;14.43;;;;;;;-1.67;100.00;95405.03;1022072;29;20025;-71
2021/01/07 02:13:06;;;;;;;20.47;13.93;;;;;;;-1.61;100.00;95418.09;1026769;28;20742;-72
2021/01/07 02:13:38;;;;;;;20.07;13.63;;;;;;;-1.61;100.00;95415.53;1027012;28;20062;-71
2021/01/07 02:14:08;;;;;;;19.83;13.43;;;;;;;-1.60;100.00;95417.13;1026425;28;21353;-69
2021/01/07 02:14:43;;;;;;;18.83;13.67;;;;;;;-1.68;100.00;95405.22;1027013;28;20105;-72
2021/01/07 02:15:14;;;;;;;20.38;13.88;;;;;;;-1.64;100.00;95410.78;1027658;28;20026;-71
2021/01/07 02:15:44;;;;;;;19.27;13.20;;;;;;;-1.61;100.00;95415.53;1025747;28;20045;-70
2021/01/07 02:16:21;;;;;;;21.47;14.17;;;;;;;-1.71;100.00;95401.28;1023478;28;20085;-70
2021/01/07 02:16:53;;;;;;;20.70;14.30;;;;;;;-1.72;100.00;95399.69;1024890;28;20058;-70
2021/01/07 02:17:23;;;;;;;21.20;14.55;;;;;;;-1.69;100.00;95401.06;1029104;28;20054;-70
2021/01/07 02:17:57;;;;;;;21.03;14.17;;;;;;;-1.67;100.00;95405.03;1026705;28;20478;-71
2021/01/07 02:18:27;;;;;;;20.05;13.60;;;;;;;-1.63;100.00;95410.59;1023413;28;20114;-70
2021/01/07 02:18:58;;;;;;;19.13;13.97;;;;;;;-1.58;100.00;95412.56;1025890;28;20039;-70
2021/01/07 02:19:28;;;;;;;21.27;14.50;;;;;;;-1.65;100.00;95402.28;1027277;28;20880;-71
2021/01/07 02:19:59;;;;;;;20.27;14.20;;;;;;;-1.61;100.00;95418.09;1022810;28;20061;-71